createdAt,value
2019-05-14T00:00:14.313Z,69.4743
2019-05-14T00:01:17.244Z,69.0471
2019-05-14T00:02:21.402Z,68.9647
2019-05-14T00:03:24.292Z,69.2393
2019-05-14T00:04:27.332Z,68.9204
2019-05-14T00:05:32.196Z,68.4474
2019-05-14T00:06:34.287Z,68.3650
2019-05-14T00:07:37.303Z,67.8721
2019-05-14T00:08:41.804Z,67.6554
2019-05-14T00:09:45.343Z,67.8172
2019-05-14T00:10:48.262Z,67.4861
2019-05-14T00:11:51.412Z,67.2908
2019-05-14T00:12:54.270Z,67.2724
2019-05-14T00:13:57.309Z,66.8330
2019-05-14T00:15:02.134Z,66.5080
2019-05-14T00:16:05.308Z,66.6987
2019-05-14T00:17:08.307Z,66.5110
2019-05-14T00:18:11.727Z,66.2684
2019-05-14T00:19:15.304Z,66.0670
2019-05-14T00:20:18.329Z,65.6001
2019-05-14T00:21:21.295Z,65.5085
2019-05-14T00:22:24.274Z,65.2476
2019-05-14T00:23:27.297Z,65.4307
2019-05-14T00:24:32.254Z,65.4078
2019-05-14T00:25:35.342Z,65.3498
2019-05-14T00:26:39.342Z,64.8585
2019-05-14T00:27:42.294Z,65.3040
2019-05-14T00:28:45.288Z,64.8142
2019-05-14T00:29:48.317Z,64.6861
2019-05-14T00:30:52.379Z,64.4236
2019-05-14T00:31:55.286Z,64.9775
2019-05-14T00:32:58.354Z,64.9454
2019-05-14T00:34:01.734Z,65.0294
2019-05-14T00:35:05.319Z,64.8539
2019-05-14T00:36:08.274Z,64.7501
2019-05-14T00:37:11.684Z,64.9287
2019-05-14T00:38:14.293Z,64.9104
2019-05-14T00:39:16.340Z,64.9134
2019-05-14T00:40:19.351Z,64.9454
2019-05-14T00:41:23.342Z,65.0568
2019-05-14T00:42:26.325Z,65.1743
2019-05-14T00:43:29.290Z,65.0095
2019-05-14T00:44:32.558Z,65.1804
2019-05-14T00:45:35.347Z,65.3956
2019-05-14T00:46:38.319Z,65.3407
2019-05-14T00:47:41.917Z,65.5375
2019-05-14T00:48:45.261Z,65.8946
2019-05-14T00:49:48.354Z,65.7145
2019-05-14T00:50:51.778Z,65.8991
2019-05-14T00:51:55.295Z,65.7252
2019-05-14T00:52:58.303Z,65.7237
2019-05-14T00:54:01.701Z,65.5375
2019-05-14T00:55:05.274Z,65.8671
2019-05-14T00:56:08.356Z,66.1265
2019-05-14T00:57:11.836Z,66.3478
2019-05-14T00:58:16.285Z,66.2745
2019-05-14T00:59:21.520Z,66.4927
2019-05-14T01:00:23.274Z,66.8269
2019-05-14T01:01:26.344Z,66.5766
2019-05-14T01:02:29.271Z,66.5522
2019-05-14T01:03:32.610Z,66.4652
2019-05-14T01:04:35.278Z,66.6117
2019-05-14T01:05:38.283Z,66.7399
2019-05-14T01:06:42.033Z,66.6621
2019-05-14T01:07:45.317Z,66.8223
2019-05-14T01:08:47.348Z,66.7918
2019-05-14T01:09:52.397Z,66.6346
2019-05-14T01:10:55.329Z,66.6484
2019-05-14T01:11:58.301Z,66.4607
2019-05-14T01:13:01.437Z,66.3890
2019-05-14T01:14:04.308Z,66.7216
2019-05-14T01:15:10.745Z,66.8589
2019-05-14T01:16:15.327Z,66.5034
2019-05-14T01:17:18.330Z,66.9001
2019-05-14T01:18:21.888Z,67.0237
2019-05-14T01:19:25.293Z,66.8925
2019-05-14T01:20:27.328Z,66.8589
2019-05-14T01:21:31.218Z,67.1488
2019-05-14T01:22:34.307Z,66.9551
2019-05-14T01:23:37.307Z,67.0344
2019-05-14T01:24:41.719Z,66.6896
2019-05-14T01:25:47.317Z,66.7994
2019-05-14T01:26:52.250Z,66.6621
2019-05-14T01:27:55.291Z,66.7094
2019-05-14T01:28:58.277Z,66.5721
2019-05-14T01:30:02.039Z,66.8742
2019-05-14T01:31:05.296Z,66.4485
2019-05-14T01:32:08.332Z,66.9825
2019-05-14T01:33:11.874Z,66.7964
2019-05-14T01:34:15.318Z,66.9780
2019-05-14T01:35:18.278Z,66.8193
2019-05-14T01:36:21.577Z,66.6346
2019-05-14T01:37:24.278Z,66.7124
2019-05-14T01:38:27.323Z,66.8879
2019-05-14T01:39:32.093Z,67.2999
2019-05-14T01:40:35.279Z,66.9276
2019-05-14T01:41:38.325Z,66.5476
2019-05-14T01:42:41.741Z,66.3981
2019-05-14T01:43:45.299Z,66.6316
2019-05-14T01:44:48.278Z,66.5171
2019-05-14T01:45:52.454Z,66.4942
2019-05-14T01:46:55.261Z,65.6702
2019-05-14T01:47:58.307Z,65.5772
2019-05-14T01:49:01.659Z,65.6062
2019-05-14T01:50:04.286Z,65.7664
2019-05-14T01:51:07.338Z,65.6519
2019-05-14T01:52:11.277Z,65.6779
2019-05-14T01:53:14.318Z,65.6092
2019-05-14T01:54:17.284Z,65.7145
2019-05-14T01:55:21.905Z,65.4444
2019-05-14T01:56:25.316Z,65.6184
2019-05-14T01:57:28.317Z,65.8427
2019-05-14T01:58:31.358Z,65.4871
2019-05-14T01:59:34.293Z,65.5375
2019-05-14T02:00:37.318Z,65.8946
2019-05-14T02:01:41.503Z,63.9567
2019-05-14T02:02:44.314Z,63.9078
2019-05-14T02:03:47.274Z,64.5304
2019-05-14T02:04:51.330Z,64.6906
2019-05-14T02:05:54.304Z,64.7868
2019-05-14T02:06:57.328Z,64.8539
2019-05-14T02:08:01.714Z,64.3015
2019-05-14T02:09:05.290Z,64.6403
2019-05-14T02:10:08.296Z,64.5441
2019-05-14T02:11:12.121Z,64.1077
2019-05-14T02:12:15.381Z,63.2197
2019-05-14T02:13:18.268Z,63.5691
2019-05-14T02:14:22.030Z,62.8733
2019-05-14T02:15:36.305Z,62.2995
2019-05-14T02:16:33.279Z,61.5167
2019-05-14T02:17:36.281Z,62.0218
2019-05-14T02:18:41.457Z,62.0447
2019-05-14T02:19:44.274Z,61.3855
2019-05-14T02:20:47.275Z,61.8891
2019-05-14T02:21:51.436Z,61.9516
2019-05-14T02:22:54.259Z,61.5595
2019-05-14T02:23:56.311Z,61.2924
2019-05-14T02:24:59.264Z,61.7639
2019-05-14T02:26:02.690Z,61.3840
2019-05-14T02:27:06.315Z,61.5076
2019-05-14T02:28:11.414Z,61.3931
2019-05-14T02:29:14.284Z,61.9150
2019-05-14T02:30:20.282Z,61.9257
2019-05-14T02:31:25.288Z,61.7105
2019-05-14T02:32:29.753Z,61.9150
2019-05-14T02:33:33.310Z,62.2461
2019-05-14T02:34:39.459Z,62.5055
2019-05-14T02:35:43.323Z,62.4659
2019-05-14T02:36:49.425Z,62.6749
2019-05-14T02:37:52.337Z,63.0091
2019-05-14T02:38:55.291Z,62.9129
2019-05-14T02:39:59.667Z,62.6429
2019-05-14T02:41:03.317Z,61.8570
2019-05-14T02:42:09.570Z,62.2354
2019-05-14T02:43:13.313Z,61.9150
2019-05-14T02:44:18.881Z,62.2080
2019-05-14T02:45:21.272Z,62.2736
2019-05-14T02:46:24.339Z,62.6154
2019-05-14T02:47:29.885Z,62.6841
2019-05-14T02:48:33.401Z,62.3102
2019-05-14T02:49:39.340Z,63.0640
2019-05-14T02:50:43.285Z,62.9267
2019-05-14T02:51:50.070Z,62.7619
2019-05-14T02:52:53.348Z,62.6535
2019-05-14T02:53:58.919Z,63.2151
2019-05-14T02:55:02.297Z,63.4760
2019-05-14T02:56:05.313Z,63.1556
2019-05-14T02:57:10.378Z,63.0961
2019-05-14T02:58:14.329Z,62.6947
2019-05-14T02:59:19.599Z,62.8443
2019-05-14T03:00:23.305Z,62.9786
2019-05-14T03:01:26.285Z,63.1418
2019-05-14T03:02:29.808Z,63.3860
2019-05-14T03:03:33.302Z,63.3204
2019-05-14T03:04:39.181Z,63.1571
2019-05-14T03:05:42.300Z,63.1876
2019-05-14T03:06:45.317Z,63.2853
2019-05-14T03:07:49.989Z,63.1937
2019-05-14T03:08:53.343Z,63.1296
2019-05-14T03:09:59.194Z,63.3799
2019-05-14T03:11:01.330Z,63.1754
2019-05-14T03:12:04.291Z,63.6774
2019-05-14T03:13:09.493Z,63.4363
2019-05-14T03:14:12.319Z,63.8346
2019-05-14T03:15:15.308Z,64.0177
2019-05-14T03:16:26.036Z,64.4480
2019-05-14T03:17:29.768Z,64.9012
2019-05-14T03:18:33.370Z,64.8493
2019-05-14T03:19:36.275Z,64.7913
2019-05-14T03:20:39.019Z,65.0294
2019-05-14T03:21:42.303Z,64.8875
2019-05-14T03:23:01.365Z,64.8814
2019-05-14T03:23:53.326Z,64.9607
2019-05-14T03:24:59.621Z,64.9424
2019-05-14T03:26:03.312Z,65.2628
2019-05-14T03:27:09.322Z,65.5924
2019-05-14T03:28:13.327Z,65.4582
2019-05-14T03:29:19.351Z,65.6474
2019-05-14T03:30:23.498Z,65.4780
2019-05-14T03:31:32.255Z,65.3819
2019-05-14T03:32:34.297Z,65.5451
2019-05-14T03:33:43.010Z,65.5314
2019-05-14T03:34:45.305Z,65.9358
2019-05-14T03:35:56.360Z,66.1860
2019-05-14T03:37:02.367Z,66.3203
2019-05-14T03:38:04.315Z,65.8747
2019-05-14T03:39:10.251Z,66.3615
2019-05-14T03:40:13.297Z,66.3935
2019-05-14T03:41:19.429Z,66.7491
2019-05-14T03:42:22.271Z,67.0527
2019-05-14T03:43:25.332Z,67.1794
2019-05-14T03:44:29.112Z,67.6371
2019-05-14T03:45:32.339Z,67.8706
2019-05-14T03:46:45.678Z,67.7439
2019-05-14T03:47:43.309Z,67.9210
2019-05-14T03:48:49.038Z,67.6646
2019-05-14T03:49:52.284Z,67.8203
2019-05-14T03:50:55.313Z,68.0644
2019-05-14T03:52:00.452Z,67.7516
2019-05-14T03:53:03.318Z,67.8798
2019-05-14T03:54:11.390Z,68.4016
2019-05-14T03:55:14.281Z,68.6946
2019-05-14T03:56:19.237Z,68.7541
2019-05-14T03:57:22.286Z,68.7373
2019-05-14T03:58:25.298Z,69.1981
2019-05-14T03:59:29.307Z,69.1295
2019-05-14T04:00:32.290Z,68.6595
2019-05-14T04:01:35.275Z,68.7694
2019-05-14T04:02:39.116Z,68.8365
2019-05-14T04:03:42.313Z,68.8655
2019-05-14T04:04:45.308Z,69.2485
2019-05-14T04:05:49.382Z,69.6025
2019-05-14T04:06:52.305Z,69.8436
2019-05-14T04:07:55.307Z,69.8222
2019-05-14T04:09:00.626Z,70.1381
2019-05-14T04:10:04.287Z,70.2098
2019-05-14T04:11:09.624Z,70.0954
2019-05-14T04:12:13.297Z,69.7215
2019-05-14T04:13:19.585Z,69.9123
2019-05-14T04:14:23.296Z,69.9763
2019-05-14T04:15:29.643Z,70.4814
2019-05-14T04:16:33.332Z,70.1473
2019-05-14T04:17:38.783Z,70.5119
2019-05-14T04:18:44.326Z,70.0511
2019-05-14T04:19:49.270Z,70.1610
2019-05-14T04:20:52.300Z,70.1228
2019-05-14T04:21:55.313Z,70.1793
2019-05-14T04:23:00.006Z,70.1366
2019-05-14T04:24:03.330Z,70.0053
2019-05-14T04:25:06.300Z,70.1473
2019-05-14T04:26:09.584Z,70.2342
2019-05-14T04:27:13.126Z,70.1793
2019-05-14T04:28:19.288Z,70.4112
2019-05-14T04:29:22.291Z,70.7057
2019-05-14T04:30:25.327Z,70.2876
2019-05-14T04:31:29.831Z,70.2281
2019-05-14T04:32:33.413Z,70.5776
2019-05-14T04:33:39.051Z,70.3059
2019-05-14T04:34:41.305Z,70.4982
2019-05-14T04:35:44.274Z,70.4952
2019-05-14T04:36:50.076Z,70.5760
2019-05-14T04:37:53.287Z,70.4616
2019-05-14T04:38:56.299Z,70.4768
2019-05-14T04:39:59.470Z,70.1885
2019-05-14T04:41:02.312Z,70.3487
2019-05-14T04:42:05.310Z,70.7637
2019-05-14T04:43:10.153Z,70.7423
2019-05-14T04:44:13.331Z,70.5272
2019-05-14T04:45:19.414Z,70.7271
2019-05-14T04:46:22.289Z,70.7774
2019-05-14T04:47:31.862Z,70.3761
2019-05-14T04:48:37.596Z,70.6584
2019-05-14T04:49:41.378Z,70.5730
2019-05-14T04:50:44.292Z,70.5180
2019-05-14T04:51:50.180Z,70.3700
2019-05-14T04:52:53.281Z,70.7011
2019-05-14T04:53:59.613Z,70.7866
2019-05-14T04:55:03.324Z,70.6416
2019-05-14T04:56:08.732Z,70.8461
2019-05-14T04:57:12.296Z,70.8095
2019-05-14T04:58:15.322Z,70.3197
2019-05-14T04:59:19.135Z,70.3380
2019-05-14T05:00:22.299Z,70.2831
2019-05-14T05:01:25.359Z,70.3243
2019-05-14T05:02:30.110Z,70.3304
2019-05-14T05:03:33.286Z,70.5531
2019-05-14T05:04:36.301Z,70.2602
2019-05-14T05:05:39.531Z,70.2342
2019-05-14T05:06:42.318Z,69.9046
2019-05-14T05:07:45.326Z,69.7337
2019-05-14T05:08:49.806Z,69.9229
2019-05-14T05:09:53.319Z,69.9870
2019-05-14T05:10:59.658Z,69.3858
2019-05-14T05:12:03.317Z,69.4636
2019-05-14T05:13:09.031Z,69.2531
2019-05-14T05:14:12.308Z,68.7907
2019-05-14T05:15:14.329Z,68.6534
2019-05-14T05:16:19.224Z,68.5863
2019-05-14T05:17:38.920Z,68.7999
2019-05-14T05:18:32.302Z,68.5359
2019-05-14T05:19:35.354Z,68.1178
2019-05-14T05:20:39.444Z,68.7968
2019-05-14T05:21:42.287Z,68.2734
2019-05-14T05:22:45.299Z,68.0171
2019-05-14T05:23:49.221Z,68.0262
2019-05-14T05:24:52.361Z,68.4154
2019-05-14T05:25:55.299Z,68.1697
2019-05-14T05:26:58.619Z,68.3421
2019-05-14T05:28:01.303Z,68.4077
2019-05-14T05:29:07.208Z,68.2689
2019-05-14T05:30:12.339Z,68.4932
2019-05-14T05:31:15.305Z,67.6936
2019-05-14T05:32:19.412Z,67.4952
2019-05-14T05:33:23.305Z,68.0583
2019-05-14T05:34:28.288Z,67.4784
2019-05-14T05:35:31.311Z,67.2755
2019-05-14T05:36:34.300Z,67.1611
2019-05-14T05:37:38.447Z,66.7048
2019-05-14T05:38:42.310Z,66.2333
2019-05-14T05:39:45.308Z,66.4286
2019-05-14T05:40:48.685Z,66.1860
2019-05-14T05:41:51.311Z,66.1830
2019-05-14T05:42:54.300Z,65.6107
2019-05-14T05:43:58.915Z,65.3025
2019-05-14T05:45:02.303Z,65.1560
2019-05-14T05:46:05.329Z,65.2384
2019-05-14T05:47:09.269Z,65.4444
2019-05-14T05:48:12.303Z,65.2399
2019-05-14T05:49:15.288Z,65.1621
2019-05-14T05:50:19.379Z,64.9149
2019-05-14T05:51:23.332Z,64.7044
2019-05-14T05:52:28.239Z,64.7868
2019-05-14T05:53:31.275Z,64.2786
2019-05-14T05:54:34.291Z,63.7476
2019-05-14T05:55:39.275Z,63.7873
2019-05-14T05:56:42.358Z,64.1321
2019-05-14T05:57:45.334Z,64.1398
2019-05-14T05:58:48.952Z,64.0162
2019-05-14T05:59:52.309Z,63.8849
2019-05-14T06:00:55.287Z,63.9796
2019-05-14T06:01:58.800Z,64.3107
2019-05-14T06:03:02.310Z,64.4343
2019-05-14T06:04:05.295Z,64.1810
2019-05-14T06:05:08.334Z,63.9933
2019-05-14T06:06:13.388Z,63.3494
2019-05-14T06:07:18.392Z,63.7018
2019-05-14T06:08:21.304Z,63.1159
2019-05-14T06:09:24.334Z,63.7415
2019-05-14T06:10:29.179Z,62.9099
2019-05-14T06:11:32.322Z,63.1434
2019-05-14T06:12:34.339Z,63.1418
2019-05-14T06:13:39.016Z,63.4958
2019-05-14T06:14:42.281Z,63.3433
2019-05-14T06:15:48.818Z,62.5650
2019-05-14T06:16:53.321Z,62.7817
2019-05-14T06:18:13.359Z,62.9007
2019-05-14T06:19:08.201Z,63.3707
2019-05-14T06:20:11.292Z,62.7070
2019-05-14T06:21:14.303Z,62.5895
2019-05-14T06:22:18.924Z,62.9358
2019-05-14T06:23:22.351Z,62.7070
2019-05-14T06:24:25.319Z,62.4277
2019-05-14T06:25:31.336Z,62.0127
2019-05-14T06:26:34.317Z,61.8921
2019-05-14T06:27:38.070Z,61.5641
2019-05-14T06:28:41.141Z,61.7227
2019-05-14T06:29:44.278Z,61.4801
2019-05-14T06:30:48.413Z,61.5854
2019-05-14T06:31:51.292Z,61.5488
2019-05-14T06:32:54.351Z,61.7136
2019-05-14T06:33:59.109Z,61.7792
2019-05-14T06:35:02.333Z,62.0020
2019-05-14T06:36:08.716Z,62.4704
2019-05-14T06:37:12.336Z,62.2553
2019-05-14T06:38:15.314Z,62.3743
2019-05-14T06:39:18.419Z,62.3270
2019-05-14T06:40:21.344Z,62.2232
2019-05-14T06:41:24.294Z,61.5854
2019-05-14T06:42:28.507Z,59.6414
2019-05-14T06:43:32.350Z,60.3586
2019-05-14T06:44:35.305Z,60.1312
2019-05-14T06:45:39.143Z,60.2396
2019-05-14T06:46:43.356Z,59.9023
2019-05-14T06:47:48.621Z,59.7284
2019-05-14T06:48:52.362Z,60.5066
2019-05-14T06:49:55.303Z,60.5417
2019-05-14T06:50:58.536Z,60.7797
2019-05-14T06:52:01.312Z,59.5087
2019-05-14T06:53:04.295Z,60.0153
2019-05-14T06:54:09.206Z,59.9435
2019-05-14T06:55:12.295Z,59.3851
2019-05-14T06:56:18.802Z,58.7793
2019-05-14T06:57:23.278Z,59.5575
2019-05-14T06:58:26.304Z,59.2798
2019-05-14T06:59:29.357Z,58.5290
2019-05-14T07:00:31.348Z,58.6053
2019-05-14T07:01:34.317Z,58.5519
2019-05-14T07:02:43.240Z,58.0575
2019-05-14T07:03:45.337Z,58.0438
2019-05-14T07:04:48.541Z,58.4039
2019-05-14T07:05:51.319Z,58.0255
2019-05-14T07:06:54.298Z,58.5153
2019-05-14T07:07:59.704Z,59.3057
2019-05-14T07:09:03.300Z,58.9853
2019-05-14T07:10:08.739Z,58.1811
2019-05-14T07:11:12.252Z,57.9416
2019-05-14T07:12:15.331Z,58.9624
2019-05-14T07:13:18.939Z,59.2203
2019-05-14T07:14:21.302Z,59.5819
2019-05-14T07:15:24.336Z,57.7813
2019-05-14T07:16:28.682Z,56.9757
2019-05-14T07:17:32.302Z,57.7646
2019-05-14T07:18:46.398Z,58.4726
2019-05-14T07:19:43.351Z,57.5311
2019-05-14T07:20:48.359Z,57.0718
2019-05-14T07:21:51.314Z,57.0535
2019-05-14T07:22:54.308Z,57.0489
2019-05-14T07:23:56.317Z,56.4279
2019-05-14T07:24:59.328Z,57.5219
2019-05-14T07:26:02.292Z,57.4441
2019-05-14T07:27:05.324Z,56.3302
2019-05-14T07:28:08.860Z,55.7580
2019-05-14T07:29:12.312Z,56.9680
2019-05-14T07:30:15.323Z,56.2982
2019-05-14T07:31:18.793Z,56.2661
2019-05-14T07:32:22.284Z,56.2448
2019-05-14T07:33:25.510Z,56.1715
2019-05-14T07:34:28.440Z,57.1328
2019-05-14T07:35:31.327Z,57.9614
2019-05-14T07:36:34.339Z,55.6268
2019-05-14T07:37:39.703Z,56.7422
2019-05-14T07:38:43.327Z,56.2127
2019-05-14T07:39:48.506Z,57.1237
2019-05-14T07:40:52.343Z,56.5957
2019-05-14T07:41:55.282Z,56.9619
2019-05-14T07:42:58.430Z,54.7387
2019-05-14T07:44:01.297Z,53.1273
2019-05-14T07:45:04.300Z,53.5119
2019-05-14T07:46:08.515Z,54.4488
2019-05-14T07:47:12.319Z,53.2494
2019-05-14T07:48:15.318Z,53.1121
2019-05-14T07:49:18.567Z,54.1344
2019-05-14T07:50:21.362Z,53.8415
2019-05-14T07:51:24.303Z,53.6889
2019-05-14T07:52:28.517Z,52.9671
2019-05-14T07:53:38.793Z,53.1960
2019-05-14T07:54:40.299Z,53.6110
2019-05-14T07:55:43.360Z,54.0368
2019-05-14T07:56:49.075Z,54.1878
2019-05-14T07:57:54.294Z,54.6136
2019-05-14T07:58:58.468Z,54.5830
2019-05-14T08:00:03.328Z,54.7433
2019-05-14T08:01:06.325Z,53.4936
2019-05-14T08:02:09.517Z,52.4590
2019-05-14T08:03:12.291Z,52.7916
2019-05-14T08:04:17.217Z,51.7342
2019-05-14T08:05:22.310Z,52.8054
2019-05-14T08:06:24.388Z,53.2509
2019-05-14T08:07:28.180Z,52.5734
2019-05-14T08:08:31.291Z,53.0068
2019-05-14T08:09:34.300Z,53.2464
2019-05-14T08:10:36.328Z,53.2143
2019-05-14T08:11:38.865Z,51.8090
2019-05-14T08:12:42.325Z,50.8247
2019-05-14T08:13:45.345Z,50.1747
2019-05-14T08:15:09.032Z,50.9880
2019-05-14T08:15:55.323Z,50.5501
2019-05-14T08:16:59.554Z,50.1137
2019-05-14T08:18:03.293Z,50.4814
2019-05-14T08:19:20.885Z,50.7683
2019-05-14T08:20:14.337Z,50.2846
2019-05-14T08:21:19.351Z,50.5318
2019-05-14T08:22:23.337Z,50.5730
2019-05-14T08:23:28.207Z,49.6147
2019-05-14T08:24:31.286Z,50.4036
2019-05-14T08:25:34.315Z,49.5201
2019-05-14T08:26:38.181Z,50.5089
2019-05-14T08:27:41.367Z,50.5272
2019-05-14T08:28:44.284Z,49.9535
2019-05-14T08:29:48.703Z,50.3029
2019-05-14T08:30:52.302Z,50.0679
2019-05-14T08:31:55.337Z,49.8207
2019-05-14T08:32:58.419Z,49.1264
2019-05-14T08:34:04.633Z,50.2892
2019-05-14T08:35:09.082Z,48.8731
2019-05-14T08:36:12.295Z,48.5954
2019-05-14T08:37:15.292Z,48.5344
2019-05-14T08:38:18.539Z,48.2322
2019-05-14T08:39:22.258Z,48.2979
2019-05-14T08:40:25.324Z,48.4535
2019-05-14T08:41:28.780Z,46.6087
2019-05-14T08:42:34.062Z,46.1677
2019-05-14T08:43:39.791Z,47.0924
2019-05-14T08:44:47.937Z,47.9500
2019-05-14T08:45:53.312Z,48.1636
2019-05-14T08:46:58.436Z,45.9663
2019-05-14T08:48:02.317Z,46.6224
2019-05-14T08:49:05.340Z,46.7140
2019-05-14T08:50:09.116Z,47.5273
2019-05-14T08:51:12.393Z,48.6687
2019-05-14T08:52:18.969Z,48.6000
2019-05-14T08:53:22.334Z,47.5242
2019-05-14T08:54:25.335Z,47.8950
2019-05-14T08:55:29.666Z,46.3325
2019-05-14T08:56:33.305Z,44.7852
2019-05-14T08:57:38.611Z,45.6474
2019-05-14T08:58:42.323Z,45.4353
2019-05-14T08:59:45.337Z,44.8585
2019-05-14T09:00:48.479Z,47.0573
2019-05-14T09:02:01.792Z,45.1942
2019-05-14T09:02:59.327Z,45.2537
2019-05-14T09:04:02.305Z,44.1917
2019-05-14T09:05:05.502Z,44.4297
2019-05-14T09:06:10.367Z,43.6973
2019-05-14T09:07:13.341Z,43.3722
2019-05-14T09:08:18.957Z,40.7721
2019-05-14T09:09:22.325Z,40.4227
2019-05-14T09:10:25.366Z,39.5453
2019-05-14T09:11:35.026Z,40.5783
2019-05-14T09:12:38.617Z,39.4812
2019-05-14T09:13:42.355Z,40.0443
2019-05-14T09:14:45.324Z,40.0031
2019-05-14T09:15:48.928Z,41.1505
2019-05-14T09:16:52.358Z,40.2487
2019-05-14T09:17:55.314Z,39.2782
2019-05-14T09:18:58.278Z,40.2167
2019-05-14T09:20:06.735Z,37.6867
2019-05-14T09:21:09.296Z,38.7442
2019-05-14T09:22:12.373Z,39.5987
2019-05-14T09:23:15.296Z,38.7533
2019-05-14T09:24:18.377Z,38.5336
2019-05-14T09:25:21.292Z,38.1567
2019-05-14T09:26:24.325Z,39.0188
2019-05-14T09:27:29.246Z,39.1043
2019-05-14T09:28:32.303Z,39.6628
2019-05-14T09:29:35.335Z,39.0005
2019-05-14T09:30:38.333Z,39.0082
2019-05-14T09:31:41.342Z,40.0443
2019-05-14T09:32:44.354Z,37.1847
2019-05-14T09:33:49.480Z,37.5769
2019-05-14T09:34:52.322Z,37.4777
2019-05-14T09:36:09.554Z,38.7716
2019-05-14T09:37:03.354Z,38.8815
2019-05-14T09:38:08.510Z,38.6511
2019-05-14T09:39:12.257Z,38.4405
2019-05-14T09:40:14.381Z,38.0148
2019-05-14T09:41:18.549Z,37.0611
2019-05-14T09:42:21.286Z,37.2808
2019-05-14T09:43:24.346Z,38.1384
2019-05-14T09:44:29.317Z,36.7193
2019-05-14T09:45:32.319Z,37.6577
2019-05-14T09:46:35.351Z,36.2600
2019-05-14T09:47:38.736Z,35.9731
2019-05-14T09:48:42.279Z,35.1156
2019-05-14T09:49:45.310Z,36.6720
2019-05-14T09:50:48.977Z,35.7031
2019-05-14T09:51:52.318Z,35.5795
2019-05-14T09:52:55.336Z,37.0520
2019-05-14T09:53:58.926Z,34.2062
2019-05-14T09:55:02.339Z,36.1242
2019-05-14T09:56:05.359Z,35.6390
2019-05-14T09:57:08.495Z,35.4955
2019-05-14T09:58:11.311Z,37.8225
2019-05-14T09:59:14.316Z,36.5225
2019-05-14T10:00:18.683Z,35.8450
2019-05-14T10:01:22.355Z,35.7580
2019-05-14T10:02:25.316Z,35.6802
2019-05-14T10:03:27.312Z,36.0784
2019-05-14T10:04:30.361Z,36.7605
2019-05-14T10:05:33.274Z,33.9498
2019-05-14T10:06:39.015Z,35.2804
2019-05-14T10:07:42.291Z,34.5113
2019-05-14T10:08:45.321Z,34.4060
2019-05-14T10:09:49.184Z,34.4076
2019-05-14T10:10:52.310Z,35.0896
2019-05-14T10:11:55.337Z,32.8786
2019-05-14T10:13:01.350Z,33.5195
2019-05-14T10:14:05.328Z,33.9498
2019-05-14T10:15:08.843Z,32.5170
2019-05-14T10:16:12.320Z,32.2454
2019-05-14T10:17:15.358Z,33.2067
2019-05-14T10:18:19.039Z,32.1080
2019-05-14T10:19:22.314Z,30.8675
2019-05-14T10:20:40.238Z,31.1238
2019-05-14T10:21:33.311Z,32.6940
2019-05-14T10:22:36.369Z,30.8309
2019-05-14T10:23:39.280Z,31.6640
2019-05-14T10:24:42.317Z,33.9086
2019-05-14T10:25:45.346Z,32.0638
2019-05-14T10:26:49.156Z,31.1162
2019-05-14T10:27:52.367Z,31.2337
2019-05-14T10:28:54.307Z,31.9158
2019-05-14T10:29:58.859Z,32.3232
2019-05-14T10:31:03.808Z,32.8145
2019-05-14T10:32:08.737Z,32.0500
2019-05-14T10:33:15.082Z,32.7581
2019-05-14T10:34:19.228Z,33.7743
2019-05-14T10:35:22.301Z,34.2138
2019-05-14T10:36:25.283Z,34.5769
2019-05-14T10:37:28.792Z,35.2178
2019-05-14T10:38:32.329Z,35.2544
2019-05-14T10:39:35.352Z,33.8659
2019-05-14T10:40:38.701Z,34.4656
2019-05-14T10:41:42.335Z,33.9727
2019-05-14T10:42:44.358Z,35.0759
2019-05-14T10:43:49.736Z,34.9752
2019-05-14T10:44:53.285Z,33.8766
2019-05-14T10:45:58.001Z,34.4884
2019-05-14T10:47:01.322Z,35.8251
2019-05-14T10:48:04.351Z,35.5276
2019-05-14T10:49:19.996Z,35.2071
2019-05-14T10:50:15.331Z,33.3303
2019-05-14T10:51:18.354Z,34.0414
2019-05-14T10:52:23.313Z,33.1121
2019-05-14T10:53:25.377Z,34.9325
2019-05-14T10:54:29.268Z,34.8913
2019-05-14T10:55:32.317Z,34.1329
2019-05-14T10:56:35.278Z,35.2453
2019-05-14T10:57:38.305Z,34.4427
2019-05-14T10:58:41.348Z,33.6141
2019-05-14T10:59:44.300Z,34.2000
2019-05-14T11:00:49.309Z,33.6919
2019-05-14T11:01:54.352Z,33.1197
2019-05-14T11:02:57.329Z,34.2733
2019-05-14T11:04:00.314Z,32.7779
2019-05-14T11:05:03.301Z,31.8257
2019-05-14T11:06:06.333Z,32.0867
2019-05-14T11:07:09.314Z,32.4437
2019-05-14T11:08:12.314Z,33.7057
2019-05-14T11:09:15.304Z,34.1314
2019-05-14T11:10:19.523Z,35.5245
2019-05-14T11:11:22.286Z,34.5891
2019-05-14T11:12:25.357Z,34.9920
2019-05-14T11:13:29.242Z,34.4076
2019-05-14T11:14:32.362Z,35.2041
2019-05-14T11:15:35.336Z,34.3191
2019-05-14T11:16:41.790Z,34.0352
2019-05-14T11:17:45.267Z,33.3867
2019-05-14T11:18:49.744Z,34.2382
2019-05-14T11:19:53.361Z,34.0230
2019-05-14T11:21:16.171Z,34.8882
2019-05-14T11:22:04.318Z,35.2255
2019-05-14T11:23:08.979Z,34.2641
2019-05-14T11:24:12.329Z,33.9620
2019-05-14T11:25:15.313Z,35.0530
2019-05-14T11:26:18.427Z,34.1146
2019-05-14T11:27:22.297Z,34.5388
2019-05-14T11:28:25.267Z,33.5683
2019-05-14T11:29:29.580Z,34.1558
2019-05-14T11:30:33.315Z,35.1247
2019-05-14T11:31:38.872Z,34.4060
2019-05-14T11:32:42.321Z,33.8537
2019-05-14T11:33:45.306Z,32.7596
2019-05-14T11:34:48.341Z,33.9132
2019-05-14T11:35:51.306Z,33.7194
2019-05-14T11:36:54.324Z,33.7667
2019-05-14T11:37:58.866Z,34.5403
2019-05-14T11:39:04.018Z,33.9132
2019-05-14T11:40:08.743Z,33.6553
2019-05-14T11:41:12.337Z,34.9249
2019-05-14T11:42:15.306Z,34.3801
2019-05-14T11:43:18.341Z,34.0444
2019-05-14T11:44:21.301Z,33.8659
2019-05-14T11:45:23.305Z,35.2209
2019-05-14T11:46:39.977Z,33.4539
2019-05-14T11:47:34.319Z,34.9706
2019-05-14T11:48:38.948Z,35.6878
2019-05-14T11:49:42.349Z,37.4044
2019-05-14T11:50:45.324Z,34.9340
2019-05-14T11:52:00.722Z,35.8862
2019-05-14T11:52:58.331Z,36.0555
2019-05-14T11:54:01.285Z,35.4452
2019-05-14T11:55:04.334Z,34.8959
2019-05-14T11:56:08.629Z,36.0311
2019-05-14T11:57:12.307Z,34.7234
2019-05-14T11:58:15.379Z,35.1537
2019-05-14T11:59:18.969Z,33.8704
2019-05-14T12:00:25.719Z,33.9452
2019-05-14T12:01:29.787Z,33.7835
2019-05-14T12:02:33.267Z,35.5154
2019-05-14T12:03:39.043Z,33.2433
2019-05-14T12:04:42.317Z,34.3648
2019-05-14T12:05:45.279Z,35.0378
2019-05-14T12:06:48.288Z,33.0098
2019-05-14T12:07:51.290Z,34.1100
2019-05-14T12:08:54.298Z,33.9895
2019-05-14T12:09:57.346Z,32.3476
2019-05-14T12:11:00.332Z,32.9503
2019-05-14T12:12:03.279Z,32.2698
2019-05-14T12:13:08.402Z,34.0169
2019-05-14T12:14:12.340Z,32.1736
2019-05-14T12:15:15.297Z,33.8811
2019-05-14T12:16:18.328Z,33.1624
2019-05-14T12:17:21.388Z,34.5357
2019-05-14T12:18:24.298Z,34.5769
2019-05-14T12:19:28.371Z,34.5541
2019-05-14T12:20:31.352Z,35.2041
2019-05-14T12:21:34.308Z,34.1604
2019-05-14T12:22:39.356Z,32.8222
2019-05-14T12:23:42.323Z,34.1909
2019-05-14T12:24:45.336Z,34.4762
2019-05-14T12:25:49.063Z,33.9361
2019-05-14T12:26:52.290Z,35.0576
2019-05-14T12:27:55.309Z,34.7738
2019-05-14T12:28:59.409Z,31.9203
2019-05-14T12:30:01.338Z,33.5225
2019-05-14T12:31:04.303Z,31.4626
2019-05-14T12:32:12.804Z,32.6085
2019-05-14T12:33:15.311Z,33.9681
2019-05-14T12:34:18.595Z,32.4483
2019-05-14T12:35:21.316Z,33.3410
2019-05-14T12:36:24.308Z,33.3684
2019-05-14T12:37:28.941Z,33.5195
2019-05-14T12:38:32.266Z,34.9187
2019-05-14T12:39:35.252Z,36.0815
2019-05-14T12:40:38.435Z,36.1502
2019-05-14T12:41:41.293Z,36.3287
2019-05-14T12:42:44.299Z,35.6374
2019-05-14T12:43:47.330Z,36.2875
2019-05-14T12:44:50.315Z,36.7498
2019-05-14T12:45:53.361Z,36.3622
2019-05-14T12:46:58.592Z,36.3348
2019-05-14T12:48:02.309Z,34.8318
2019-05-14T12:49:05.315Z,31.9203
2019-05-14T12:50:09.367Z,32.8725
2019-05-14T12:51:12.346Z,31.5679